Time;durP1;ratioP1;P1;durP2;ratioP2;P2;SDS_P1;SDS_P2;PMS_P1;PMS_P2;Temp;Humidity;BMP_temperature;BMP_pressure;BME280_temperature;BME280_humidity;BME280_pressure;Samples;Min_cycle;Max_cycle;Signal;HPM_P1;HPM_P2
2023/06/21 00:01:54;;;;;;;11.63;6.67;;;23.80;74.70;;;;;;5075536;28;20441;-69
2023/06/21 00:04:24;;;;;;;15.70;6.40;;;23.70;75.10;;;;;;5075911;28;20483;-69
2023/06/21 00:06:51;;;;;;;8.30;6.27;;;23.70;75.40;;;;;;5076131;28;20880;-69
2023/06/21 00:09:23;;;;;;;11.70;6.73;;;23.60;75.60;;;;;;5076171;28;20524;-69
2023/06/21 00:11:51;;;;;;;10.70;6.10;;;23.50;76.60;;;;;;5075846;28;20458;-69
2023/06/21 00:14:19;;;;;;;9.03;6.53;;;23.50;76.00;;;;;;5069178;28;20459;-69
2023/06/21 00:16:47;;;;;;;16.20;6.47;;;23.40;76.30;;;;;;5056034;28;20439;-69
2023/06/21 00:19:21;;;;;;;12.80;8.33;;;23.50;76.30;;;;;;5055536;28;20437;-69
2023/06/21 00:21:53;;;;;;;8.93;5.70;;;23.40;76.50;;;;;;5055641;28;20421;-69
2023/06/21 00:24:23;;;;;;;11.63;6.33;;;23.40;76.70;;;;;;5061457;28;20508;-68
2023/06/21 00:26:50;;;;;;;13.40;6.07;;;23.40;76.90;;;;;;5075416;28;20476;-69
2023/06/21 00:29:20;;;;;;;9.43;5.80;;;23.40;77.40;;;;;;5075746;28;20463;-69
2023/06/21 00:31:51;;;;;;;8.13;6.83;;;23.40;77.70;;;;;;5070679;28;20431;-69
2023/06/21 00:34:20;;;;;;;12.37;6.90;;;23.40;78.10;;;;;;5060336;28;20426;-69
2023/06/21 00:36:49;;;;;;;10.80;6.43;;;23.30;78.90;;;;;;5075702;28;20487;-70
2023/06/21 00:39:24;;;;;;;8.70;6.10;;;23.30;78.00;;;;;;5075242;28;20843;-69
2023/06/21 00:42:02;;;;;;;12.63;7.03;;;23.30;78.00;;;;;;5075275;28;20464;-69
2023/06/21 00:44:29;;;;;;;13.43;7.17;;;23.20;78.40;;;;;;5074738;28;20438;-69
2023/06/21 00:46:57;;;;;;;9.77;6.10;;;23.20;78.50;;;;;;5075309;28;20476;-70
2023/06/21 00:49:31;;;;;;;12.70;6.70;;;23.20;78.60;;;;;;5075651;28;20425;-69
2023/06/21 00:52:05;;;;;;;8.97;6.90;;;23.10;78.90;;;;;;5075082;28;20417;-68
2023/06/21 00:54:40;;;;;;;9.20;6.20;;;23.00;79.40;;;;;;5068265;28;20474;-69
2023/06/21 00:57:15;;;;;;;11.33;7.07;;;23.00;79.70;;;;;;5055166;28;20425;-69
2023/06/21 00:59:43;;;;;;;12.47;6.70;;;23.00;79.60;;;;;;5055154;28;20422;-69
2023/06/21 01:02:10;;;;;;;11.80;7.33;;;23.00;79.80;;;;;;5054735;28;20474;-69
2023/06/21 01:04:40;;;;;;;12.67;6.33;;;22.90;79.90;;;;;;5054542;28;20435;-69
2023/06/21 01:07:21;;;;;;;10.00;7.03;;;22.90;80.10;;;;;;5054678;28;20478;-69
2023/06/21 01:10:09;;;;;;;9.40;6.83;;;22.90;80.50;;;;;;5054737;28;20510;-69
2023/06/21 01:12:49;;;;;;;10.93;6.77;;;22.80;80.60;;;;;;5054807;28;20426;-69
2023/06/21 01:15:24;;;;;;;13.03;6.90;;;22.70;81.00;;;;;;5054699;28;20757;-69
2023/06/21 01:17:53;;;;;;;10.80;6.63;;;22.70;81.20;;;;;;5055073;28;20515;-69
2023/06/21 01:20:33;;;;;;;9.10;5.30;;;22.70;81.50;;;;;;5054766;28;20425;-69
2023/06/21 01:23:29;;;;;;;8.03;6.60;;;22.70;81.90;;;;;;5070609;28;20422;-69
2023/06/21 01:26:11;;;;;;;11.80;6.37;;;22.60;82.30;;;;;;5073164;28;20439;-69
2023/06/21 01:29:06;;;;;;;11.00;6.30;;;22.60;81.90;;;;;;5034744;28;20420;-69
2023/06/21 01:31:43;;;;;;;12.93;7.10;;;22.60;82.30;;;;;;5034670;28;20451;-69
2023/06/21 01:34:14;;;;;;;11.83;6.70;;;22.50;82.80;;;;;;5058769;28;20432;-69
2023/06/21 01:36:44;;;;;;;13.73;7.37;;;22.40;83.10;;;;;;5074028;28;20436;-69
2023/06/21 01:39:15;;;;;;;10.70;6.40;;;22.40;83.30;;;;;;5074311;28;20852;-69
2023/06/21 01:41:47;;;;;;;13.40;6.43;;;22.50;83.80;;;;;;5074090;28;20461;-69
2023/06/21 01:44:16;;;;;;;12.20;7.03;;;22.40;81.60;;;;;;5061953;28;20443;-69
2023/06/21 01:46:51;;;;;;;18.57;8.30;;;22.30;83.20;;;;;;5054129;28;20528;-69
2023/06/21 01:49:20;;;;;;;12.90;6.27;;;22.20;83.70;;;;;;5070737;28;20922;-69
2023/06/21 01:51:50;;;;;;;12.80;7.00;;;22.20;83.90;;;;;;5069336;28;20433;-69
2023/06/21 01:54:20;;;;;;;9.00;6.23;;;22.20;84.20;;;;;;5074282;28;20421;-69
2023/06/21 01:56:59;;;;;;;9.93;6.40;;;22.20;84.60;;;;;;5073778;28;20429;-69
2023/06/21 01:59:33;;;;;;;12.57;6.80;;;22.10;84.90;;;;;;5073379;28;20512;-71
2023/06/21 02:02:04;;;;;;;12.27;7.00;;;22.20;84.90;;;;;;5058219;28;20458;-69
2023/06/21 02:04:35;;;;;;;12.73;6.73;;;22.00;85.10;;;;;;5053692;28;20435;-69
2023/06/21 02:07:04;;;;;;;10.60;6.77;;;22.00;84.90;;;;;;5053559;28;21039;-69
2023/06/21 02:09:32;;;;;;;10.73;6.20;;;22.00;85.20;;;;;;5053550;28;20462;-69
2023/06/21 02:12:02;;;;;;;8.03;6.40;;;22.00;85.50;;;;;;5053089;28;20759;-69
2023/06/21 02:14:39;;;;;;;16.43;7.57;;;22.00;85.80;;;;;;5053485;28;20430;-69
2023/06/21 02:17:09;;;;;;;10.50;6.10;;;21.90;86.00;;;;;;5055083;28;20755;-69
2023/06/21 02:19:39;;;;;;;10.27;5.80;;;21.90;86.50;;;;;;5060979;28;20928;-69
2023/06/21 02:22:07;;;;;;;6.67;5.60;;;21.80;86.70;;;;;;5073726;28;20441;-69
2023/06/21 02:24:37;;;;;;;9.03;6.37;;;21.80;87.10;;;;;;5073743;28;20489;-69
2023/06/21 02:27:05;;;;;;;11.57;6.97;;;21.80;87.60;;;;;;5073239;28;20471;-69
2023/06/21 02:29:34;;;;;;;9.93;6.47;;;21.80;88.10;;;;;;5070885;28;20428;-69
2023/06/21 02:32:02;;;;;;;10.87;7.70;;;21.70;88.30;;;;;;5063477;28;20456;-69
2023/06/21 02:34:30;;;;;;;11.80;7.70;;;21.70;88.60;;;;;;5073309;28;20547;-69
2023/06/21 02:37:00;;;;;;;11.33;7.00;;;21.70;88.80;;;;;;5073235;28;20515;-69
2023/06/21 02:39:32;;;;;;;13.13;6.60;;;21.70;89.00;;;;;;5073087;28;20949;-69
2023/06/21 02:42:01;;;;;;;14.07;7.10;;;21.70;89.00;;;;;;5071087;28;20472;-69
2023/06/21 02:44:28;;;;;;;10.87;7.57;;;21.70;87.80;;;;;;5072619;28;20915;-70
2023/06/21 02:47:01;;;;;;;8.30;6.20;;;21.70;87.60;;;;;;5073383;28;20471;-69
2023/06/21 02:49:30;;;;;;;9.40;6.40;;;21.60;87.90;;;;;;5073462;28;20420;-69
2023/06/21 02:51:57;;;;;;;15.50;7.93;;;21.60;88.20;;;;;;5063335;28;20426;-69
2023/06/21 02:54:30;;;;;;;9.80;5.67;;;21.60;88.20;;;;;;5053391;28;20835;-70
2023/06/21 02:57:02;;;;;;;15.57;6.80;;;21.50;88.20;;;;;;5053540;28;20422;-69
2023/06/21 02:59:29;;;;;;;12.40;7.10;;;21.50;88.20;;;;;;5052968;28;20974;-69
2023/06/21 03:02:00;;;;;;;11.03;6.80;;;21.50;88.30;;;;;;5054188;28;20446;-69
2023/06/21 03:04:29;;;;;;;14.33;6.73;;;21.50;88.00;;;;;;5052921;28;20440;-69
2023/06/21 03:07:01;;;;;;;11.63;7.47;;;21.40;88.50;;;;;;5052778;28;20517;-69
2023/06/21 03:09:28;;;;;;;8.97;6.50;;;21.40;88.20;;;;;;5053185;28;20415;-69
2023/06/21 03:12:05;;;;;;;10.07;5.83;;;21.30;87.80;;;;;;5059410;28;20432;-69
2023/06/21 03:14:38;;;;;;;13.60;6.83;;;21.30;88.30;;;;;;5071942;28;20428;-71
2023/06/21 03:17:09;;;;;;;16.23;8.10;;;21.20;88.80;;;;;;5073175;28;20421;-69
2023/06/21 03:19:36;;;;;;;8.70;7.13;;;21.10;89.50;;;;;;5068795;28;20896;-69
2023/06/21 03:22:05;;;;;;;8.67;6.97;;;21.10;90.10;;;;;;5067651;28;20440;-69
2023/06/21 03:24:34;;;;;;;11.93;7.20;;;21.10;90.20;;;;;;5073989;28;20825;-69
2023/06/21 03:27:02;;;;;;;9.70;6.53;;;21.10;90.30;;;;;;5076796;28;20469;-69
2023/06/21 03:29:30;;;;;;;10.63;6.93;;;21.00;90.70;;;;;;5076490;28;20906;-69
2023/06/21 03:32:02;;;;;;;13.50;8.57;;;21.00;91.00;;;;;;5076510;28;20453;-69
2023/06/21 03:34:30;;;;;;;10.23;7.60;;;21.00;90.90;;;;;;5076460;28;20475;-69
2023/06/21 03:37:07;;;;;;;10.20;7.13;;;21.00;90.90;;;;;;5076767;28;20434;-69
2023/06/21 03:39:36;;;;;;;12.20;7.50;;;21.00;90.70;;;;;;5075814;28;20432;-69
2023/06/21 03:42:04;;;;;;;16.20;7.67;;;20.90;90.80;;;;;;5075543;28;20501;-69
2023/06/21 03:44:31;;;;;;;10.87;7.80;;;20.90;91.10;;;;;;5076108;28;20442;-69
2023/06/21 03:47:00;;;;;;;16.57;7.63;;;20.90;91.20;;;;;;5076331;28;20766;-70
2023/06/21 03:49:36;;;;;;;10.80;8.17;;;20.90;91.20;;;;;;5076023;28;20428;-69
2023/06/21 03:52:08;;;;;;;12.57;7.67;;;20.90;91.00;;;;;;5063937;28;20429;-70
2023/06/21 03:54:37;;;;;;;15.80;8.37;;;20.90;90.90;;;;;;5056380;28;20755;-69
2023/06/21 03:57:07;;;;;;;10.10;7.27;;;20.90;91.10;;;;;;5069742;28;20925;-69
2023/06/21 03:59:42;;;;;;;8.53;6.60;;;20.70;91.60;;;;;;5075834;28;20441;-69
2023/06/21 04:02:12;;;;;;;11.27;8.30;;;20.70;91.50;;;;;;5076031;28;20895;-69
2023/06/21 04:04:44;;;;;;;9.07;6.97;;;20.70;91.70;;;;;;5076331;28;20471;-69
2023/06/21 04:07:13;;;;;;;10.80;8.83;;;20.70;91.50;;;;;;5075514;28;20459;-69
2023/06/21 04:09:42;;;;;;;10.67;7.93;;;20.70;91.70;;;;;;5076220;28;20446;-69
2023/06/21 04:12:15;;;;;;;13.47;8.10;;;20.70;92.00;;;;;;5075879;28;21061;-69
2023/06/21 04:14:44;;;;;;;13.10;7.13;;;20.70;92.10;;;;;;5075689;28;20421;-70
2023/06/21 04:17:15;;;;;;;13.97;7.57;;;20.70;92.20;;;;;;5059937;28;20532;-71
2023/06/21 04:19:43;;;;;;;13.10;7.20;;;20.80;92.20;;;;;;5075156;28;20425;-69
2023/06/21 04:22:12;;;;;;;13.70;8.13;;;20.80;92.40;;;;;;5075618;28;20885;-69
2023/06/21 04:24:45;;;;;;;8.27;6.90;;;20.70;92.50;;;;;;5075549;28;20437;-69
2023/06/21 04:27:16;;;;;;;10.77;6.90;;;20.70;92.40;;;;;;5075447;28;20762;-69
2023/06/21 04:29:48;;;;;;;13.13;7.80;;;20.70;92.50;;;;;;5075480;28;20497;-69
2023/06/21 04:32:20;;;;;;;12.33;6.40;;;20.70;92.60;;;;;;5075371;28;20520;-70
2023/06/21 04:34:49;;;;;;;11.77;7.50;;;20.70;92.80;;;;;;5075399;28;20451;-70
2023/06/21 04:37:23;;;;;;;11.20;7.90;;;20.70;92.90;;;;;;5074965;28;20436;-69
2023/06/21 04:39:57;;;;;;;11.20;7.07;;;20.70;93.00;;;;;;5073432;28;20428;-69
2023/06/21 04:42:26;;;;;;;13.27;7.70;;;20.70;93.00;;;;;;5075275;28;20471;-69
2023/06/21 04:44:54;;;;;;;14.10;8.13;;;20.70;93.20;;;;;;5075087;28;20523;-69
2023/06/21 04:47:24;;;;;;;10.73;7.87;;;20.80;93.50;;;;;;5075089;28;20463;-69
2023/06/21 04:49:56;;;;;;;12.33;8.60;;;20.80;93.60;;;;;;5066386;28;20446;-70
2023/06/21 04:52:28;;;;;;;13.07;8.40;;;21.00;93.70;;;;;;5067676;28;20428;-69
2023/06/21 04:55:01;;;;;;;11.47;7.00;;;21.10;93.60;;;;;;5075099;28;20417;-69
2023/06/21 04:57:34;;;;;;;11.73;9.57;;;21.10;93.80;;;;;;5075435;28;20848;-69
2023/06/21 05:00:07;;;;;;;11.77;7.73;;;21.20;93.70;;;;;;5063714;28;20428;-69
2023/06/21 05:02:38;;;;;;;14.07;8.00;;;21.20;93.50;;;;;;5055229;28;20502;-69
2023/06/21 05:05:08;;;;;;;18.87;8.90;;;21.20;93.70;;;;;;5054648;28;20471;-70
2023/06/21 05:07:37;;;;;;;11.23;8.20;;;21.20;93.80;;;;;;5051687;28;20477;-69
2023/06/21 05:10:08;;;;;;;18.50;8.00;;;21.30;94.10;;;;;;5055179;28;20425;-69
2023/06/21 05:12:37;;;;;;;16.13;8.77;;;21.30;94.10;;;;;;5053191;28;20479;-69
2023/06/21 05:15:06;;;;;;;10.07;7.80;;;21.40;94.20;;;;;;5053559;28;20437;-69
2023/06/21 05:17:33;;;;;;;14.87;7.63;;;21.50;94.40;;;;;;5052640;28;20918;-70
2023/06/21 05:20:06;;;;;;;15.20;7.70;;;21.60;94.20;;;;;;5053199;28;20438;-69
2023/06/21 05:22:33;;;;;;;9.80;6.90;;;21.70;94.40;;;;;;5053046;28;20926;-69
2023/06/21 05:25:02;;;;;;;16.10;7.20;;;21.90;94.70;;;;;;5055170;28;20521;-69
2023/06/21 05:27:31;;;;;;;12.37;8.03;;;22.00;94.90;;;;;;5052786;28;20434;-70
2023/06/21 05:29:58;;;;;;;16.43;8.20;;;22.10;94.20;;;;;;5052683;28;20437;-70
2023/06/21 05:32:26;;;;;;;14.20;8.10;;;22.20;93.80;;;;;;5052469;28;20910;-70
2023/06/21 05:34:55;;;;;;;14.10;8.13;;;22.30;93.60;;;;;;5057256;28;20425;-70
2023/06/21 05:37:27;;;;;;;17.23;7.97;;;22.30;93.30;;;;;;5052614;28;20442;-69
2023/06/21 05:39:54;;;;;;;12.67;7.87;;;22.50;93.00;;;;;;5052411;28;20898;-71
2023/06/21 05:42:22;;;;;;;20.57;8.03;;;22.60;93.10;;;;;;5052137;28;20469;-70
2023/06/21 05:44:51;;;;;;;16.43;9.03;;;22.70;93.00;;;;;;5052174;28;20442;-69
2023/06/21 05:47:18;;;;;;;12.00;7.53;;;22.80;92.90;;;;;;5051548;28;20436;-70
2023/06/21 05:49:46;;;;;;;14.37;10.30;;;22.90;92.40;;;;;;5052999;28;20774;-70
2023/06/21 05:52:17;;;;;;;14.70;7.50;;;23.00;91.90;;;;;;5048820;28;20434;-69
2023/06/21 05:54:47;;;;;;;16.93;8.40;;;23.10;91.90;;;;;;5052722;28;20768;-69
2023/06/21 05:57:15;;;;;;;14.43;7.63;;;23.20;91.80;;;;;;5052499;28;20458;-70
2023/06/21 05:59:44;;;;;;;18.13;7.90;;;23.30;91.50;;;;;;5017397;28;20434;-71
2023/06/21 06:02:13;;;;;;;15.43;8.50;;;23.40;91.30;;;;;;5048165;28;20454;-70
2023/06/21 06:04:41;;;;;;;18.43;8.37;;;23.50;90.70;;;;;;5050583;28;20513;-70
2023/06/21 06:07:12;;;;;;;16.70;7.60;;;23.60;90.20;;;;;;5051469;28;20430;-69
2023/06/21 06:09:44;;;;;;;14.17;6.80;;;23.60;87.40;;;;;;5051070;28;20487;-69
2023/06/21 06:12:17;;;;;;;10.07;6.63;;;23.70;86.10;;;;;;5054326;28;20514;-70
2023/06/21 06:14:46;;;;;;;12.73;7.20;;;23.80;87.00;;;;;;5046798;28;20424;-69
2023/06/21 06:17:16;;;;;;;12.23;7.17;;;23.90;85.20;;;;;;5052120;28;20431;-69
2023/06/21 06:19:47;;;;;;;11.87;7.07;;;23.90;86.00;;;;;;5051329;28;20437;-70
2023/06/21 06:22:15;;;;;;;13.17;6.87;;;23.90;85.30;;;;;;5049215;28;20435;-69
2023/06/21 06:24:42;;;;;;;14.27;6.90;;;24.00;84.10;;;;;;5054321;28;20994;-69
2023/06/21 06:27:12;;;;;;;9.80;7.07;;;24.10;84.10;;;;;;5051635;28;20494;-69
2023/06/21 06:29:42;;;;;;;9.87;6.50;;;24.20;82.80;;;;;;5052506;28;20562;-69
2023/06/21 06:32:12;;;;;;;11.17;6.77;;;24.20;82.70;;;;;;5048845;28;20447;-69
2023/06/21 06:34:40;;;;;;;13.90;8.23;;;24.20;82.60;;;;;;5050816;28;20467;-69
2023/06/21 06:37:08;;;;;;;14.27;8.07;;;24.30;83.00;;;;;;5051565;28;20940;-69
2023/06/21 06:39:49;;;;;;;10.30;6.83;;;24.40;83.50;;;;;;5052939;28;20827;-69
2023/06/21 06:42:16;;;;;;;9.90;6.10;;;24.50;83.80;;;;;;5052667;28;20479;-70
2023/06/21 06:44:44;;;;;;;10.60;6.27;;;24.70;83.10;;;;;;5052683;28;20910;-70
2023/06/21 06:47:15;;;;;;;12.80;6.20;;;24.80;82.00;;;;;;5051186;28;20502;-69
2023/06/21 06:49:44;;;;;;;9.60;5.50;;;24.90;81.30;;;;;;5050624;28;20467;-71
2023/06/21 06:52:12;;;;;;;8.30;5.53;;;25.10;80.80;;;;;;5051848;28;20526;-69
2023/06/21 06:54:40;;;;;;;12.90;5.70;;;25.20;79.80;;;;;;5048020;28;20444;-69
2023/06/21 06:57:11;;;;;;;15.67;5.70;;;25.30;78.60;;;;;;5050085;28;20436;-69
2023/06/21 06:59:39;;;;;;;11.20;5.50;;;25.30;77.80;;;;;;5054173;28;20424;-70
2023/06/21 07:02:07;;;;;;;10.80;6.17;;;25.40;76.80;;;;;;5060496;28;20470;-69
2023/06/21 07:04:34;;;;;;;12.50;6.10;;;25.50;76.20;;;;;;5057186;28;20451;-69
2023/06/21 07:07:02;;;;;;;15.70;7.90;;;25.60;76.00;;;;;;5057253;28;20489;-70
2023/06/21 07:09:29;;;;;;;11.30;7.17;;;25.60;73.80;;;;;;5057130;28;20464;-69
2023/06/21 07:11:59;;;;;;;11.43;7.17;;;25.70;73.60;;;;;;5057068;28;20472;-69
2023/06/21 07:14:26;;;;;;;9.97;6.70;;;25.70;73.80;;;;;;5057064;28;20425;-69
2023/06/21 07:16:53;;;;;;;10.07;6.27;;;25.90;73.20;;;;;;5057114;28;20837;-69
2023/06/21 07:19:20;;;;;;;11.40;6.43;;;25.90;73.30;;;;;;5057039;28;20943;-69
2023/06/21 07:21:47;;;;;;;8.10;6.23;;;26.10;74.50;;;;;;5057210;28;20448;-70
2023/06/21 07:24:16;;;;;;;12.60;6.67;;;26.20;73.40;;;;;;5056873;28;20461;-69
2023/06/21 07:26:43;;;;;;;11.27;6.57;;;26.30;73.30;;;;;;5056806;28;20821;-69
2023/06/21 07:29:10;;;;;;;12.07;6.13;;;26.40;73.00;;;;;;5057033;28;20500;-69
2023/06/21 07:31:37;;;;;;;13.20;6.97;;;26.50;70.20;;;;;;5057024;28;20436;-69
2023/06/21 07:34:07;;;;;;;8.87;5.90;;;26.60;68.40;;;;;;5057017;28;20421;-69
2023/06/21 07:36:34;;;;;;;11.00;6.10;;;26.70;67.80;;;;;;5056952;28;20468;-69
2023/06/21 07:39:01;;;;;;;10.10;6.47;;;26.80;68.80;;;;;;5056809;28;20436;-69
2023/06/21 07:41:29;;;;;;;9.43;5.80;;;26.80;68.50;;;;;;5056763;28;20433;-69
2023/06/21 07:43:58;;;;;;;8.47;5.03;;;27.00;68.70;;;;;;5056958;28;20413;-69
2023/06/21 07:46:25;;;;;;;13.63;6.60;;;27.10;68.30;;;;;;5056526;28;20899;-69
2023/06/21 07:48:52;;;;;;;8.00;5.60;;;27.20;67.90;;;;;;5056756;28;20469;-69
2023/06/21 07:51:19;;;;;;;11.37;6.47;;;27.20;67.90;;;;;;5056745;28;20472;-69
2023/06/21 07:53:46;;;;;;;11.67;6.33;;;27.40;68.30;;;;;;5056733;28;20803;-69
2023/06/21 07:56:14;;;;;;;11.37;5.70;;;27.50;67.30;;;;;;5056628;28;20494;-69
2023/06/21 07:58:44;;;;;;;12.23;6.13;;;27.60;66.40;;;;;;5056579;28;20520;-69
2023/06/21 08:01:13;;;;;;;11.70;6.80;;;27.70;67.00;;;;;;5056482;28;20430;-69
2023/06/21 08:03:40;;;;;;;15.23;7.30;;;27.80;64.90;;;;;;5056525;28;20473;-69
2023/06/21 08:06:07;;;;;;;8.17;5.93;;;27.90;64.10;;;;;;5056104;28;20429;-69
2023/06/21 08:08:34;;;;;;;14.80;6.13;;;27.90;63.40;;;;;;5056360;28;20847;-69
2023/06/21 08:11:01;;;;;;;12.40;6.40;;;28.00;64.50;;;;;;5055549;28;20586;-69
2023/06/21 08:13:29;;;;;;;17.57;6.47;;;28.00;63.40;;;;;;5056340;28;21002;-69
2023/06/21 08:15:57;;;;;;;12.50;6.03;;;28.20;62.70;;;;;;5055988;28;20440;-69
2023/06/21 08:18:26;;;;;;;10.47;5.60;;;28.20;63.10;;;;;;5056131;28;20779;-69
2023/06/21 08:20:53;;;;;;;12.50;6.90;;;28.30;62.40;;;;;;5055872;28;20491;-69
2023/06/21 08:23:20;;;;;;;9.57;7.03;;;28.40;62.20;;;;;;5056177;28;20433;-69
2023/06/21 08:25:48;;;;;;;11.37;6.07;;;28.60;62.30;;;;;;5056117;28;20429;-69
2023/06/21 08:28:17;;;;;;;14.67;6.40;;;28.70;61.50;;;;;;5056044;28;20433;-69
2023/06/21 08:30:44;;;;;;;10.00;6.57;;;28.80;61.60;;;;;;5055899;28;20468;-69
2023/06/21 08:33:13;;;;;;;10.53;6.23;;;29.00;60.80;;;;;;5055836;28;20429;-69
2023/06/21 08:35:40;;;;;;;8.80;6.70;;;29.10;60.00;;;;;;5056074;28;20429;-69
2023/06/21 08:38:07;;;;;;;8.47;5.87;;;29.10;58.80;;;;;;5055474;28;20457;-69
2023/06/21 08:40:37;;;;;;;12.77;6.00;;;29.20;58.70;;;;;;5055519;28;20434;-69
2023/06/21 08:43:04;;;;;;;11.57;6.40;;;29.30;58.40;;;;;;5055797;28;20457;-69
2023/06/21 08:45:31;;;;;;;9.43;5.87;;;29.40;58.70;;;;;;5055657;28;20516;-69
2023/06/21 08:48:01;;;;;;;9.37;5.33;;;29.50;58.60;;;;;;5055714;28;20434;-69
2023/06/21 08:50:31;;;;;;;12.00;5.87;;;29.60;57.80;;;;;;5055299;28;20457;-69
2023/06/21 08:53:01;;;;;;;8.90;6.93;;;29.70;55.80;;;;;;5055645;28;20460;-70
2023/06/21 08:55:30;;;;;;;8.67;5.70;;;29.70;56.00;;;;;;5055230;28;20509;-69
2023/06/21 08:57:59;;;;;;;12.57;5.87;;;29.80;56.60;;;;;;5055482;28;20479;-69
2023/06/21 09:00:34;;;;;;;10.33;6.30;;;29.90;56.20;;;;;;5055323;28;20445;-69
2023/06/21 09:03:07;;;;;;;6.87;5.00;;;30.00;55.60;;;;;;5055457;28;20483;-69
2023/06/21 09:05:39;;;;;;;9.53;5.80;;;30.10;55.50;;;;;;5055066;28;20421;-69
2023/06/21 09:08:07;;;;;;;10.50;6.37;;;30.20;55.10;;;;;;5055387;28;20422;-69
2023/06/21 09:10:37;;;;;;;6.73;5.67;;;30.30;53.40;;;;;;5054909;28;20550;-69
2023/06/21 09:13:06;;;;;;;8.47;5.27;;;30.40;52.50;;;;;;5054829;28;20425;-69
2023/06/21 09:15:34;;;;;;;12.33;5.90;;;30.40;51.90;;;;;;5055085;28;20772;-69
2023/06/21 09:18:03;;;;;;;8.03;5.80;;;30.50;51.60;;;;;;5055148;28;20461;-69
2023/06/21 09:20:30;;;;;;;8.23;5.30;;;30.60;51.10;;;;;;5055094;28;20562;-69
2023/06/21 09:23:00;;;;;;;12.03;6.30;;;30.70;51.80;;;;;;5053635;28;20977;-69
2023/06/21 09:25:28;;;;;;;11.17;5.53;;;30.80;51.40;;;;;;5054957;28;20490;-69
2023/06/21 09:27:55;;;;;;;7.33;5.13;;;30.90;51.80;;;;;;5054924;28;20465;-69
2023/06/21 09:30:23;;;;;;;13.43;5.67;;;30.90;50.50;;;;;;5054404;28;20473;-69
2023/06/21 09:32:50;;;;;;;9.37;5.90;;;31.00;50.50;;;;;;5054469;28;20430;-69
2023/06/21 09:35:17;;;;;;;9.83;5.03;;;31.10;49.70;;;;;;5054756;28;20483;-69
2023/06/21 09:37:45;;;;;;;8.57;5.87;;;31.20;48.30;;;;;;5054684;28;20461;-69
2023/06/21 09:40:13;;;;;;;13.40;5.10;;;31.30;47.70;;;;;;5054683;28;20844;-69
2023/06/21 09:42:41;;;;;;;7.93;5.20;;;31.40;46.80;;;;;;5054383;28;20951;-69
2023/06/21 09:45:11;;;;;;;7.80;5.30;;;31.60;47.40;;;;;;5054517;28;20452;-69
2023/06/21 09:47:41;;;;;;;7.90;5.57;;;31.70;47.10;;;;;;5054574;28;20475;-69
2023/06/21 09:50:09;;;;;;;9.07;5.03;;;31.80;46.70;;;;;;5054437;28;20479;-69
2023/06/21 09:52:37;;;;;;;14.10;5.07;;;31.90;46.60;;;;;;5054158;28;20479;-69
2023/06/21 09:55:05;;;;;;;9.37;5.90;;;32.10;46.70;;;;;;5054087;28;20429;-69
2023/06/21 09:57:33;;;;;;;6.87;4.60;;;32.20;45.30;;;;;;5054010;28;20425;-69
2023/06/21 10:00:04;;;;;;;8.83;4.80;;;32.20;45.80;;;;;;5053939;28;20563;-69
2023/06/21 10:02:38;;;;;;;9.53;5.53;;;32.30;44.50;;;;;;5054267;28;20429;-69
2023/06/21 10:05:07;;;;;;;8.10;4.93;;;32.30;44.50;;;;;;5053949;28;20910;-69
2023/06/21 10:07:43;;;;;;;7.50;5.23;;;32.30;44.60;;;;;;5054150;28;20433;-69
2023/06/21 10:10:11;;;;;;;9.70;5.20;;;32.30;45.60;;;;;;5054107;28;20552;-69
2023/06/21 10:12:50;;;;;;;10.93;6.00;;;32.40;46.40;;;;;;5053518;28;20527;-68
2023/06/21 10:15:18;;;;;;;14.27;5.70;;;32.50;45.70;;;;;;5054021;28;20422;-69
2023/06/21 10:17:47;;;;;;;10.23;6.30;;;32.60;45.60;;;;;;5053981;28;20520;-69
2023/06/21 10:20:15;;;;;;;9.30;5.57;;;32.70;45.10;;;;;;5053542;28;20491;-69
2023/06/21 10:22:44;;;;;;;9.43;4.83;;;32.70;44.30;;;;;;5053609;28;20495;-69
2023/06/21 10:25:17;;;;;;;10.60;6.20;;;32.80;44.70;;;;;;5053864;28;20455;-68
2023/06/21 10:27:47;;;;;;;9.97;4.83;;;32.80;45.30;;;;;;5053827;28;20417;-69
2023/06/21 10:30:19;;;;;;;7.33;5.27;;;33.00;44.80;;;;;;5053308;28;20473;-69
2023/06/21 10:32:48;;;;;;;8.90;5.60;;;33.00;44.00;;;;;;5053863;28;20476;-69
2023/06/21 10:35:19;;;;;;;11.00;5.57;;;33.00;44.70;;;;;;5053056;28;20429;-69
2023/06/21 10:38:01;;;;;;;8.30;5.50;;;33.10;44.70;;;;;;5053734;28;20429;-69
2023/06/21 10:40:32;;;;;;;14.53;7.10;;;33.10;44.10;;;;;;5053928;28;20440;-69
2023/06/21 10:43:00;;;;;;;10.13;6.10;;;33.20;43.40;;;;;;5053650;28;20457;-69
2023/06/21 10:45:32;;;;;;;12.87;6.10;;;33.20;43.70;;;;;;5053529;28;20490;-69
2023/06/21 10:47:59;;;;;;;13.93;6.23;;;33.20;44.30;;;;;;5053216;28;20933;-69
2023/06/21 10:50:29;;;;;;;14.63;5.87;;;33.20;43.70;;;;;;5053591;28;20469;-69
2023/06/21 10:52:58;;;;;;;11.20;4.60;;;33.20;41.10;;;;;;5053781;28;20421;-69
2023/06/21 10:55:25;;;;;;;14.30;4.90;;;33.00;39.60;;;;;;5053224;28;20429;-69
2023/06/21 10:57:54;;;;;;;8.57;4.30;;;32.80;40.00;;;;;;5053087;28;20523;-69
2023/06/21 11:00:26;;;;;;;7.50;4.70;;;32.60;40.20;;;;;;5052959;28;20915;-69
2023/06/21 11:02:54;;;;;;;13.20;4.30;;;32.40;41.10;;;;;;5053531;28;20735;-69
2023/06/21 11:05:22;;;;;;;12.60;4.20;;;32.30;41.30;;;;;;5053472;28;20452;-69
2023/06/21 11:07:54;;;;;;;12.37;3.43;;;32.30;41.20;;;;;;5053408;28;20464;-69
2023/06/21 11:10:23;;;;;;;10.73;4.00;;;32.30;41.50;;;;;;5053317;28;20535;-69
2023/06/21 11:13:02;;;;;;;13.70;4.70;;;32.30;41.60;;;;;;5053463;28;20521;-69
2023/06/21 11:15:32;;;;;;;11.20;4.47;;;32.20;41.40;;;;;;5052946;28;20451;-69
2023/06/21 11:18:01;;;;;;;11.13;3.80;;;32.10;42.20;;;;;;5053000;28;20977;-69
2023/06/21 11:20:31;;;;;;;13.17;3.57;;;32.00;42.50;;;;;;5053221;28;20456;-69
2023/06/21 11:23:00;;;;;;;11.50;4.23;;;32.00;42.10;;;;;;5053293;28;20773;-69
2023/06/21 11:25:28;;;;;;;9.50;4.20;;;31.90;43.00;;;;;;5053229;28;20433;-69
2023/06/21 11:28:28;;;;;;;10.00;3.40;;;31.80;42.10;;;;;;5052843;28;20437;-69
2023/06/21 11:31:11;;;;;;;12.17;3.60;;;31.70;43.00;;;;;;5052564;28;20560;-69
2023/06/21 11:33:49;;;;;;;10.30;3.90;;;31.70;43.30;;;;;;5053085;28;20417;-69
2023/06/21 11:36:20;;;;;;;10.17;4.60;;;31.70;43.70;;;;;;5052983;28;20428;-69
2023/06/21 11:38:52;;;;;;;14.23;5.10;;;31.70;43.50;;;;;;5052700;28;20914;-69
2023/06/21 11:41:56;;;;;;;14.37;3.87;;;31.60;43.80;;;;;;5052772;28;20834;-68
2023/06/21 11:44:26;;;;;;;12.40;4.30;;;31.70;44.30;;;;;;5052403;28;20437;-69
2023/06/21 11:47:12;;;;;;;8.43;4.00;;;31.60;43.80;;;;;;5056907;28;20784;-69
2023/06/21 11:49:48;;;;;;;7.23;3.80;;;31.70;44.20;;;;;;5058036;28;20969;-68
2023/06/21 11:52:17;;;;;;;10.10;3.93;;;31.70;45.00;;;;;;5056771;28;20459;-69
2023/06/21 11:54:44;;;;;;;7.87;3.40;;;31.80;44.70;;;;;;5060134;28;20758;-69
2023/06/21 11:57:11;;;;;;;8.53;4.30;;;31.90;44.70;;;;;;5061307;28;20436;-69
2023/06/21 11:59:38;;;;;;;11.90;4.30;;;31.90;44.40;;;;;;5063357;28;20465;-69
2023/06/21 12:02:14;;;;;;;12.27;4.00;;;32.00;43.80;;;;;;5061585;28;20468;-69
2023/06/21 12:04:42;;;;;;;10.43;4.57;;;31.90;43.90;;;;;;5059971;28;20428;-68
2023/06/21 12:07:10;;;;;;;15.80;5.40;;;32.00;44.40;;;;;;5058697;28;20451;-69
2023/06/21 12:09:38;;;;;;;11.53;4.20;;;32.10;44.10;;;;;;5060185;28;20434;-68
2023/06/21 12:12:09;;;;;;;11.37;4.70;;;32.10;44.00;;;;;;5058429;28;20931;-69
2023/06/21 12:14:36;;;;;;;13.60;3.97;;;32.20;44.00;;;;;;5059817;28;20923;-69
2023/06/21 12:17:04;;;;;;;9.37;4.83;;;32.20;43.70;;;;;;5062789;28;20436;-68
2023/06/21 12:19:33;;;;;;;6.50;4.03;;;32.20;43.80;;;;;;5063603;28;20465;-68
2023/06/21 12:22:03;;;;;;;10.77;4.57;;;32.20;44.30;;;;;;5054742;28;20429;-69
2023/06/21 12:24:32;;;;;;;12.53;5.20;;;32.20;44.60;;;;;;5051614;28;20430;-69
2023/06/21 12:27:01;;;;;;;9.37;4.60;;;32.30;43.90;;;;;;5059404;28;20433;-69
2023/06/21 12:29:28;;;;;;;14.50;4.57;;;32.30;44.10;;;;;;5063052;28;20990;-69
2023/06/21 12:31:57;;;;;;;12.13;5.30;;;32.30;44.20;;;;;;5058820;28;20441;-69
2023/06/21 12:34:25;;;;;;;14.20;5.00;;;32.40;44.10;;;;;;5059153;28;20438;-69
2023/06/21 12:36:58;;;;;;;10.27;4.30;;;32.40;44.10;;;;;;5058954;28;20434;-69
2023/06/21 12:39:26;;;;;;;11.53;4.40;;;32.50;44.00;;;;;;5059219;28;20429;-69
2023/06/21 12:41:53;;;;;;;9.70;4.10;;;32.50;43.70;;;;;;5054234;28;20560;-69
2023/06/21 12:44:26;;;;;;;8.90;4.10;;;32.50;43.90;;;;;;5060202;28;20919;-69
2023/06/21 12:46:53;;;;;;;11.90;5.07;;;32.40;42.90;;;;;;5060703;28;20766;-69
2023/06/21 12:49:20;;;;;;;10.13;4.80;;;32.30;43.20;;;;;;5054878;28;20492;-71
2023/06/21 12:51:48;;;;;;;12.37;4.97;;;32.30;43.10;;;;;;5062523;28;20815;-74
2023/06/21 12:54:18;;;;;;;9.80;3.77;;;32.30;42.90;;;;;;5055308;28;20449;-69
2023/06/21 12:56:47;;;;;;;21.10;4.83;;;32.20;43.30;;;;;;5057168;28;20438;-69